Bloomsburg, PA (17815)

2:39 AM EDT on September 05, 2015 (GMT -0400)
Bloomsburg University | | Change Station
CLOSE
Current Station
Personal Weather Station
Location: Bloomsburg, PA
Elevation: 689 ft
Nearby Weather Stations

Elev 689 ft 41.01 °N, 76.45 °W | Updated 53 seconds ago

Mostly Cloudy
Mostly Cloudy
72.0 °F
Feels Like 71 °F
N
5.0
Wind Variable Wind from SW
Gusts 7.0 mph

Today
High -- | Low -- °F
--% Chance of Precip.
Yesterday
High -- | Low -- °F
Precip. -- in
6:36 AM 7:32 PM
Waning Gibbous, 51% visible
Pressure 30.18 in
Visibility 8.0 miles
Clouds Mostly Cloudy 2800 ft
Mostly Cloudy 6000 ft
Heat Index 71 °F
Dew Point 67 °F
Humidity 83%
Rainfall 0.00 in
Snow Depth Not available.
UV 0 out of 12
Pollen 9.10 out of 12
Air Quality Not available.
Flu Activity Not available.
SPECI KSEG 050601Z AUTO 17005KT 8SM BKN028 BKN060 23/19 A3018 RMK AO2 T02280189
Pressure 30.18 in
Visibility 8.0 miles
Clouds Mostly Cloudy 2800 ft
Mostly Cloudy 6000 ft
Heat Index 71 °F
Dew Point 67 °F
Humidity 83%
Rainfall 0.00 in
Snow Depth Not available.
UV 0 out of 12
Pollen 9.10 out of 12
Air Quality Not available.
Flu Activity Not available.
SPECI KSEG 050601Z AUTO 17005KT 8SM BKN028 BKN060 23/19 A3018 RMK AO2 T02280189

10-Day Weather Forecast

×

Almanac

Astronomy

Sep. 05, 2015 Rise Set
Actual Time
Civil Twilight
Nautical Twilight
Astronomical Twilight
Moon
Length of Visible Light
Length of Day
Tomorrow will be .
, % of the Moon is Illuminated

Today's Extremes

State Highs State Lows

Community

WunderPhotos

Upload Photos

1,852,430 photos uploaded!

WunderBlogs® & News

Nearby

Air Quality

  Air Quality AQ Index Pollutant
Not available.

Snow Depth

Station Depth Elevation

Earthquake Activity

City Distance Mag. Time & Date
Minimum magnitude displayed is 2.5.

Coastal Water Temperatures

Place Temperature

Stations

Nearby Weather Stations

Station Location Temp. Windchill Dew Point Humidity Wind Precip. Elev Updated Type